Dayton, WY (82836)

12:36 PM MST on February 27, 2017 (GMT -0700)
uptown | | Change Station

Elev 4327 ft 44.96 °N, 107.33 °W | Updated 15 seconds ago

Mostly Cloudy
Mostly Cloudy
21.9 °F
Feels Like 22 °F
N
2.9
Wind Variable Wind from WSW
Gusts 4.9 mph

Today
High -- | Low -- °F
--% Chance of Precip.
Yesterday
High -- | Low -- °F
Precip. -- in
Pressure 29.73 in
Visibility 10.0 miles
Clouds Few 1700 ft
Windchill 22 °F
Dew Point 15 °F
Humidity 76%
Rainfall 0.00 in
Snow Depth Not available.
6:49 AM 5:54 PM
New Moon, 2% visible
METAR KSHR 271853Z AUTO VRB06KT 10SM FEW017 M02/M09 A2961 RMK AO2 SLP065 T10221089
Pressure 29.73 in
Visibility 10.0 miles
Clouds Few 1700 ft
Windchill 22 °F
Dew Point 15 °F
Humidity 76%
Rainfall 0.00 in
Snow Depth Not available.
6:49 AM 5:54 PM
New Moon, 2% visible
METAR KSHR 271853Z AUTO VRB06KT 10SM FEW017 M02/M09 A2961 RMK AO2 SLP065 T10221089

Get Your Daily Forecast Email!

Thanks for signing up!

Be on the lookout for a verification email in your inbox.

You'll start receiving the daily forecast at 8 AM.

×

10-Day Weather Forecast

Almanac

Astronomy

Feb. 27, 2017 Rise Set
Actual Time
Civil Twilight
Nautical Twilight
Astronomical Twilight
Moon
Length of Visible Light
Length of Day
Tomorrow will be .
, % of the Moon is Illuminated

Today's Extremes

State Highs State Lows

Community

WunderPhotos

Upload Photos

1,962,540 photos uploaded!

WunderBlog® & News

Nearby

Air Quality

  Air Quality AQ Index Pollutant
Not available.

Snow Depth

Station Depth Elevation

Earthquake Activity

City Distance Mag. Time & Date
Minimum magnitude displayed is 2.5.

Coastal Water Temperatures

Place Temperature

Stations

Nearby Weather Stations

Station Location Temp. Windchill Dew Point Humidity Wind Precip. Elev Updated Type
                   

Watches & Warnings

There are currently no watches in effect.